<?xml version="1.0" encoding="UTF-8" standalone="no" ?>
<gpx xmlns="http://www.topografix.com/GPX/1/1" xmlns:xsi="http://www.w3.org/2001/XMLSchema-instance" xsi:schemaLocation="http://www.topografix.com/GPX/1/1 http://www.topografix.com/GPX/1/1/gpx.xsd" version="1.1" creator="VisuGPX - https://www.visugpx.com">
  <metadata>
    <name>Viktoriapark, Berlin : course à pied</name>
    <desc><![CDATA[Tracé d\'une course à pied au Viktoriapark, à Berlin. Ce parc se caractérise par des dénivelés conséquents pour un parc urbain.
Voir plus sur [url]http://www.High-Tech-Out.net[/url].]]></desc>
  </metadata>
  <trk>
    <name><![CDATA[Running 9/5/13 9:01 am]]></name>
    <trkseg>
      <trkpt lat="52.48921" lon="13.379">
        <ele>45</ele>
        <time>2013-09-05T09:01:59Z</time>
      </trkpt>
      <trkpt lat="52.48912" lon="13.37913">
        <ele>45</ele>
        <time>2013-09-05T09:02:02Z</time>
      </trkpt>
      <trkpt lat="52.48903" lon="13.37923">
        <ele>45</ele>
        <time>2013-09-05T09:02:06Z</time>
      </trkpt>
      <trkpt lat="52.489" lon="13.37907">
        <ele>45</ele>
        <time>2013-09-05T09:02:10Z</time>
      </trkpt>
      <trkpt lat="52.48899" lon="13.3789">
        <ele>45</ele>
        <time>2013-09-05T09:02:14Z</time>
      </trkpt>
      <trkpt lat="52.48897" lon="13.37875">
        <ele>45.2</ele>
        <time>2013-09-05T09:02:19Z</time>
      </trkpt>
      <trkpt lat="52.48895" lon="13.37861">
        <ele>45.4</ele>
        <time>2013-09-05T09:02:21Z</time>
      </trkpt>
      <trkpt lat="52.48892" lon="13.37846">
        <ele>45.6</ele>
        <time>2013-09-05T09:02:24Z</time>
      </trkpt>
      <trkpt lat="52.48886" lon="13.3783">
        <ele>45.9</ele>
        <time>2013-09-05T09:02:28Z</time>
      </trkpt>
      <trkpt lat="52.48879" lon="13.37818">
        <ele>46.2</ele>
        <time>2013-09-05T09:02:32Z</time>
      </trkpt>
      <trkpt lat="52.48871" lon="13.37808">
        <ele>46.5</ele>
        <time>2013-09-05T09:02:36Z</time>
      </trkpt>
      <trkpt lat="52.48863" lon="13.37801">
        <ele>46.7</ele>
        <time>2013-09-05T09:02:40Z</time>
      </trkpt>
      <trkpt lat="52.48852" lon="13.37796">
        <ele>47</ele>
        <time>2013-09-05T09:02:45Z</time>
      </trkpt>
      <trkpt lat="52.48843" lon="13.37788">
        <ele>47.6</ele>
        <time>2013-09-05T09:02:51Z</time>
      </trkpt>
      <trkpt lat="52.48835" lon="13.37786">
        <ele>48.3</ele>
        <time>2013-09-05T09:02:55Z</time>
      </trkpt>
      <trkpt lat="52.48825" lon="13.3779">
        <ele>49</ele>
        <time>2013-09-05T09:03:00Z</time>
      </trkpt>
      <trkpt lat="52.48813" lon="13.37791">
        <ele>49.5</ele>
        <time>2013-09-05T09:03:06Z</time>
      </trkpt>
      <trkpt lat="52.48802" lon="13.37795">
        <ele>50.1</ele>
        <time>2013-09-05T09:03:09Z</time>
      </trkpt>
      <trkpt lat="52.48791" lon="13.37794">
        <ele>50.5</ele>
        <time>2013-09-05T09:03:13Z</time>
      </trkpt>
      <trkpt lat="52.48781" lon="13.37797">
        <ele>51</ele>
        <time>2013-09-05T09:03:17Z</time>
      </trkpt>
      <trkpt lat="52.48776" lon="13.3781">
        <ele>51.8</ele>
        <time>2013-09-05T09:03:23Z</time>
      </trkpt>
      <trkpt lat="52.48776" lon="13.37826">
        <ele>52.6</ele>
        <time>2013-09-05T09:03:27Z</time>
      </trkpt>
      <trkpt lat="52.48774" lon="13.37844">
        <ele>53.5</ele>
        <time>2013-09-05T09:03:32Z</time>
      </trkpt>
      <trkpt lat="52.48773" lon="13.37862">
        <ele>54.3</ele>
        <time>2013-09-05T09:03:37Z</time>
      </trkpt>
      <trkpt lat="52.4877" lon="13.37879">
        <ele>54.7</ele>
        <time>2013-09-05T09:03:43Z</time>
      </trkpt>
      <trkpt lat="52.48768" lon="13.37894">
        <ele>55.6</ele>
        <time>2013-09-05T09:03:47Z</time>
      </trkpt>
      <trkpt lat="52.48767" lon="13.3791">
        <ele>56.5</ele>
        <time>2013-09-05T09:03:53Z</time>
      </trkpt>
      <trkpt lat="52.48765" lon="13.37925">
        <ele>57.3</ele>
        <time>2013-09-05T09:03:57Z</time>
      </trkpt>
      <trkpt lat="52.48763" lon="13.37943">
        <ele>58.1</ele>
        <time>2013-09-05T09:04:03Z</time>
      </trkpt>
      <trkpt lat="52.48761" lon="13.37958">
        <ele>58.9</ele>
        <time>2013-09-05T09:04:07Z</time>
      </trkpt>
      <trkpt lat="52.48762" lon="13.37974">
        <ele>59.7</ele>
        <time>2013-09-05T09:04:10Z</time>
      </trkpt>
      <trkpt lat="52.48761" lon="13.37989">
        <ele>60.2</ele>
        <time>2013-09-05T09:04:14Z</time>
      </trkpt>
      <trkpt lat="52.48762" lon="13.38007">
        <ele>60.6</ele>
        <time>2013-09-05T09:04:18Z</time>
      </trkpt>
      <trkpt lat="52.48763" lon="13.38023">
        <ele>61.1</ele>
        <time>2013-09-05T09:04:22Z</time>
      </trkpt>
      <trkpt lat="52.48765" lon="13.38038">
        <ele>61.5</ele>
        <time>2013-09-05T09:04:26Z</time>
      </trkpt>
      <trkpt lat="52.48766" lon="13.38053">
        <ele>62</ele>
        <time>2013-09-05T09:04:30Z</time>
      </trkpt>
      <trkpt lat="52.48767" lon="13.38069">
        <ele>62</ele>
        <time>2013-09-05T09:04:35Z</time>
      </trkpt>
      <trkpt lat="52.48771" lon="13.38083">
        <ele>61.8</ele>
        <time>2013-09-05T09:04:40Z</time>
      </trkpt>
      <trkpt lat="52.48778" lon="13.38095">
        <ele>61.8</ele>
        <time>2013-09-05T09:04:45Z</time>
      </trkpt>
      <trkpt lat="52.48786" lon="13.38107">
        <ele>61.8</ele>
        <time>2013-09-05T09:04:50Z</time>
      </trkpt>
      <trkpt lat="52.48789" lon="13.38123">
        <ele>61.8</ele>
        <time>2013-09-05T09:04:54Z</time>
      </trkpt>
      <trkpt lat="52.48793" lon="13.38138">
        <ele>61.8</ele>
        <time>2013-09-05T09:04:59Z</time>
      </trkpt>
      <trkpt lat="52.48796" lon="13.38153">
        <ele>61.8</ele>
        <time>2013-09-05T09:05:03Z</time>
      </trkpt>
      <trkpt lat="52.48792" lon="13.38169">
        <ele>61.8</ele>
        <time>2013-09-05T09:05:10Z</time>
      </trkpt>
      <trkpt lat="52.48783" lon="13.38181">
        <ele>61.8</ele>
        <time>2013-09-05T09:05:15Z</time>
      </trkpt>
      <trkpt lat="52.48774" lon="13.3819">
        <ele>61.6</ele>
        <time>2013-09-05T09:05:19Z</time>
      </trkpt>
      <trkpt lat="52.48765" lon="13.38195">
        <ele>61.5</ele>
        <time>2013-09-05T09:05:23Z</time>
      </trkpt>
      <trkpt lat="52.48755" lon="13.38196">
        <ele>61.3</ele>
        <time>2013-09-05T09:05:26Z</time>
      </trkpt>
      <trkpt lat="52.48745" lon="13.382">
        <ele>61.3</ele>
        <time>2013-09-05T09:05:31Z</time>
      </trkpt>
      <trkpt lat="52.48737" lon="13.38209">
        <ele>61.1</ele>
        <time>2013-09-05T09:05:34Z</time>
      </trkpt>
      <trkpt lat="52.48732" lon="13.38222">
        <ele>60.7</ele>
        <time>2013-09-05T09:05:38Z</time>
      </trkpt>
      <trkpt lat="52.4873" lon="13.38238">
        <ele>60.4</ele>
        <time>2013-09-05T09:05:42Z</time>
      </trkpt>
      <trkpt lat="52.48731" lon="13.38255">
        <ele>60</ele>
        <time>2013-09-05T09:05:46Z</time>
      </trkpt>
      <trkpt lat="52.48731" lon="13.38272">
        <ele>59.6</ele>
        <time>2013-09-05T09:05:49Z</time>
      </trkpt>
      <trkpt lat="52.48732" lon="13.38291">
        <ele>59.3</ele>
        <time>2013-09-05T09:05:52Z</time>
      </trkpt>
      <trkpt lat="52.48731" lon="13.38309">
        <ele>58.9</ele>
        <time>2013-09-05T09:05:56Z</time>
      </trkpt>
      <trkpt lat="52.48731" lon="13.38324">
        <ele>58.7</ele>
        <time>2013-09-05T09:05:59Z</time>
      </trkpt>
      <trkpt lat="52.48737" lon="13.38341">
        <ele>58.5</ele>
        <time>2013-09-05T09:06:03Z</time>
      </trkpt>
      <trkpt lat="52.48742" lon="13.38357">
        <ele>58</ele>
        <time>2013-09-05T09:06:07Z</time>
      </trkpt>
      <trkpt lat="52.4875" lon="13.38368">
        <ele>57.5</ele>
        <time>2013-09-05T09:06:10Z</time>
      </trkpt>
      <trkpt lat="52.48759" lon="13.38366">
        <ele>56.9</ele>
        <time>2013-09-05T09:06:14Z</time>
      </trkpt>
      <trkpt lat="52.48768" lon="13.38361">
        <ele>56.5</ele>
        <time>2013-09-05T09:06:18Z</time>
      </trkpt>
      <trkpt lat="52.48772" lon="13.38375">
        <ele>55.9</ele>
        <time>2013-09-05T09:06:21Z</time>
      </trkpt>
      <trkpt lat="52.48774" lon="13.38394">
        <ele>55.3</ele>
        <time>2013-09-05T09:06:26Z</time>
      </trkpt>
      <trkpt lat="52.48778" lon="13.3841">
        <ele>54.6</ele>
        <time>2013-09-05T09:06:30Z</time>
      </trkpt>
      <trkpt lat="52.48786" lon="13.3842">
        <ele>54</ele>
        <time>2013-09-05T09:06:34Z</time>
      </trkpt>
      <trkpt lat="52.48793" lon="13.3843">
        <ele>53.4</ele>
        <time>2013-09-05T09:06:38Z</time>
      </trkpt>
      <trkpt lat="52.48803" lon="13.38434">
        <ele>52.9</ele>
        <time>2013-09-05T09:06:45Z</time>
      </trkpt>
      <trkpt lat="52.48812" lon="13.38426">
        <ele>52.5</ele>
        <time>2013-09-05T09:06:51Z</time>
      </trkpt>
      <trkpt lat="52.48819" lon="13.38413">
        <ele>52.4</ele>
        <time>2013-09-05T09:06:56Z</time>
      </trkpt>
      <trkpt lat="52.48827" lon="13.38401">
        <ele>52.3</ele>
        <time>2013-09-05T09:07:00Z</time>
      </trkpt>
      <trkpt lat="52.48834" lon="13.38389">
        <ele>52.2</ele>
        <time>2013-09-05T09:07:04Z</time>
      </trkpt>
      <trkpt lat="52.4884" lon="13.38376">
        <ele>52.1</ele>
        <time>2013-09-05T09:07:07Z</time>
      </trkpt>
      <trkpt lat="52.48846" lon="13.38362">
        <ele>52.3</ele>
        <time>2013-09-05T09:07:12Z</time>
      </trkpt>
      <trkpt lat="52.48852" lon="13.38349">
        <ele>51.7</ele>
        <time>2013-09-05T09:07:14Z</time>
      </trkpt>
      <trkpt lat="52.48856" lon="13.38335">
        <ele>51.2</ele>
        <time>2013-09-05T09:07:17Z</time>
      </trkpt>
      <trkpt lat="52.48861" lon="13.38322">
        <ele>50.5</ele>
        <time>2013-09-05T09:07:20Z</time>
      </trkpt>
      <trkpt lat="52.48865" lon="13.38309">
        <ele>50</ele>
        <time>2013-09-05T09:07:24Z</time>
      </trkpt>
      <trkpt lat="52.48872" lon="13.38296">
        <ele>49.3</ele>
        <time>2013-09-05T09:07:29Z</time>
      </trkpt>
      <trkpt lat="52.48878" lon="13.38283">
        <ele>48.5</ele>
        <time>2013-09-05T09:07:35Z</time>
      </trkpt>
      <trkpt lat="52.48889" lon="13.38288">
        <ele>47.8</ele>
        <time>2013-09-05T09:07:41Z</time>
      </trkpt>
      <trkpt lat="52.48899" lon="13.38294">
        <ele>47.1</ele>
        <time>2013-09-05T09:07:45Z</time>
      </trkpt>
      <trkpt lat="52.4891" lon="13.38288">
        <ele>46.4</ele>
        <time>2013-09-05T09:07:49Z</time>
      </trkpt>
      <trkpt lat="52.48915" lon="13.38275">
        <ele>45.6</ele>
        <time>2013-09-05T09:07:53Z</time>
      </trkpt>
      <trkpt lat="52.48921" lon="13.3826">
        <ele>44.9</ele>
        <time>2013-09-05T09:07:59Z</time>
      </trkpt>
      <trkpt lat="52.48925" lon="13.38244">
        <ele>44.9</ele>
        <time>2013-09-05T09:08:03Z</time>
      </trkpt>
      <trkpt lat="52.48923" lon="13.38226">
        <ele>45</ele>
        <time>2013-09-05T09:08:06Z</time>
      </trkpt>
      <trkpt lat="52.48914" lon="13.38219">
        <ele>45.2</ele>
        <time>2013-09-05T09:08:11Z</time>
      </trkpt>
      <trkpt lat="52.48905" lon="13.38224">
        <ele>45.3</ele>
        <time>2013-09-05T09:08:17Z</time>
      </trkpt>
      <trkpt lat="52.48896" lon="13.38225">
        <ele>45.4</ele>
        <time>2013-09-05T09:08:21Z</time>
      </trkpt>
      <trkpt lat="52.48889" lon="13.38215">
        <ele>45.5</ele>
        <time>2013-09-05T09:08:27Z</time>
      </trkpt>
      <trkpt lat="52.48887" lon="13.38199">
        <ele>45.5</ele>
        <time>2013-09-05T09:08:31Z</time>
      </trkpt>
      <trkpt lat="52.48888" lon="13.38182">
        <ele>45.6</ele>
        <time>2013-09-05T09:08:36Z</time>
      </trkpt>
      <trkpt lat="52.48898" lon="13.38175">
        <ele>45.7</ele>
        <time>2013-09-05T09:08:58Z</time>
      </trkpt>
      <trkpt lat="52.48909" lon="13.38177">
        <ele>45.7</ele>
        <time>2013-09-05T09:09:01Z</time>
      </trkpt>
      <trkpt lat="52.48919" lon="13.38172">
        <ele>45.7</ele>
        <time>2013-09-05T09:09:07Z</time>
      </trkpt>
      <trkpt lat="52.48925" lon="13.38162">
        <ele>45.7</ele>
        <time>2013-09-05T09:09:10Z</time>
      </trkpt>
      <trkpt lat="52.48932" lon="13.38152">
        <ele>45.6</ele>
        <time>2013-09-05T09:09:15Z</time>
      </trkpt>
      <trkpt lat="52.4894" lon="13.38141">
        <ele>45.5</ele>
        <time>2013-09-05T09:09:19Z</time>
      </trkpt>
      <trkpt lat="52.48941" lon="13.38127">
        <ele>45.5</ele>
        <time>2013-09-05T09:09:26Z</time>
      </trkpt>
      <trkpt lat="52.48934" lon="13.38116">
        <ele>45.3</ele>
        <time>2013-09-05T09:09:30Z</time>
      </trkpt>
      <trkpt lat="52.48927" lon="13.38102">
        <ele>45.1</ele>
        <time>2013-09-05T09:09:34Z</time>
      </trkpt>
      <trkpt lat="52.48922" lon="13.38086">
        <ele>44.9</ele>
        <time>2013-09-05T09:09:39Z</time>
      </trkpt>
      <trkpt lat="52.48919" lon="13.38071">
        <ele>44.7</ele>
        <time>2013-09-05T09:09:42Z</time>
      </trkpt>
      <trkpt lat="52.48916" lon="13.38056">
        <ele>44.5</ele>
        <time>2013-09-05T09:09:46Z</time>
      </trkpt>
      <trkpt lat="52.48915" lon="13.38037">
        <ele>44.5</ele>
        <time>2013-09-05T09:09:50Z</time>
      </trkpt>
      <trkpt lat="52.48911" lon="13.38022">
        <ele>44.5</ele>
        <time>2013-09-05T09:09:54Z</time>
      </trkpt>
      <trkpt lat="52.48906" lon="13.38006">
        <ele>44.5</ele>
        <time>2013-09-05T09:09:58Z</time>
      </trkpt>
      <trkpt lat="52.489" lon="13.37994">
        <ele>44.5</ele>
        <time>2013-09-05T09:10:03Z</time>
      </trkpt>
      <trkpt lat="52.48898" lon="13.37977">
        <ele>44.5</ele>
        <time>2013-09-05T09:10:07Z</time>
      </trkpt>
      <trkpt lat="52.48897" lon="13.37959">
        <ele>44.5</ele>
        <time>2013-09-05T09:10:12Z</time>
      </trkpt>
      <trkpt lat="52.48897" lon="13.3794">
        <ele>44.6</ele>
        <time>2013-09-05T09:10:16Z</time>
      </trkpt>
      <trkpt lat="52.48896" lon="13.37923">
        <ele>44.7</ele>
        <time>2013-09-05T09:10:19Z</time>
      </trkpt>
      <trkpt lat="52.48897" lon="13.37908">
        <ele>44.8</ele>
        <time>2013-09-05T09:10:23Z</time>
      </trkpt>
      <trkpt lat="52.48895" lon="13.3789">
        <ele>44.9</ele>
        <time>2013-09-05T09:10:28Z</time>
      </trkpt>
      <trkpt lat="52.48894" lon="13.37875">
        <ele>45.2</ele>
        <time>2013-09-05T09:10:32Z</time>
      </trkpt>
      <trkpt lat="52.48892" lon="13.37859">
        <ele>45.4</ele>
        <time>2013-09-05T09:10:37Z</time>
      </trkpt>
      <trkpt lat="52.4889" lon="13.37842">
        <ele>45.6</ele>
        <time>2013-09-05T09:10:41Z</time>
      </trkpt>
      <trkpt lat="52.48884" lon="13.37828">
        <ele>45.9</ele>
        <time>2013-09-05T09:10:44Z</time>
      </trkpt>
      <trkpt lat="52.48877" lon="13.37817">
        <ele>46.2</ele>
        <time>2013-09-05T09:10:48Z</time>
      </trkpt>
      <trkpt lat="52.4887" lon="13.37808">
        <ele>46.5</ele>
        <time>2013-09-05T09:10:53Z</time>
      </trkpt>
      <trkpt lat="52.4886" lon="13.378">
        <ele>46.7</ele>
        <time>2013-09-05T09:10:57Z</time>
      </trkpt>
      <trkpt lat="52.48851" lon="13.37795">
        <ele>47</ele>
        <time>2013-09-05T09:11:01Z</time>
      </trkpt>
      <trkpt lat="52.4884" lon="13.37791">
        <ele>47.3</ele>
        <time>2013-09-05T09:11:06Z</time>
      </trkpt>
      <trkpt lat="52.48829" lon="13.3779">
        <ele>47.9</ele>
        <time>2013-09-05T09:11:11Z</time>
      </trkpt>
      <trkpt lat="52.4882" lon="13.37789">
        <ele>48.5</ele>
        <time>2013-09-05T09:11:16Z</time>
      </trkpt>
      <trkpt lat="52.48811" lon="13.37782">
        <ele>49</ele>
        <time>2013-09-05T09:11:23Z</time>
      </trkpt>
      <trkpt lat="52.48808" lon="13.37767">
        <ele>49.5</ele>
        <time>2013-09-05T09:11:27Z</time>
      </trkpt>
      <trkpt lat="52.48802" lon="13.37754">
        <ele>49.9</ele>
        <time>2013-09-05T09:11:32Z</time>
      </trkpt>
      <trkpt lat="52.48792" lon="13.37747">
        <ele>50.4</ele>
        <time>2013-09-05T09:11:37Z</time>
      </trkpt>
      <trkpt lat="52.48785" lon="13.37757">
        <ele>50.8</ele>
        <time>2013-09-05T09:11:41Z</time>
      </trkpt>
      <trkpt lat="52.48783" lon="13.37773">
        <ele>51.3</ele>
        <time>2013-09-05T09:11:47Z</time>
      </trkpt>
      <trkpt lat="52.48781" lon="13.37791">
        <ele>51.7</ele>
        <time>2013-09-05T09:11:54Z</time>
      </trkpt>
      <trkpt lat="52.48778" lon="13.37806">
        <ele>52.5</ele>
        <time>2013-09-05T09:11:58Z</time>
      </trkpt>
      <trkpt lat="52.48776" lon="13.37821">
        <ele>53.4</ele>
        <time>2013-09-05T09:12:03Z</time>
      </trkpt>
      <trkpt lat="52.48773" lon="13.37838">
        <ele>53.8</ele>
        <time>2013-09-05T09:12:08Z</time>
      </trkpt>
      <trkpt lat="52.48769" lon="13.37855">
        <ele>54.3</ele>
        <time>2013-09-05T09:12:13Z</time>
      </trkpt>
      <trkpt lat="52.4877" lon="13.37871">
        <ele>54.7</ele>
        <time>2013-09-05T09:12:17Z</time>
      </trkpt>
      <trkpt lat="52.48772" lon="13.37888">
        <ele>55.6</ele>
        <time>2013-09-05T09:12:20Z</time>
      </trkpt>
      <trkpt lat="52.48774" lon="13.37902">
        <ele>56.5</ele>
        <time>2013-09-05T09:12:25Z</time>
      </trkpt>
      <trkpt lat="52.48771" lon="13.3792">
        <ele>57.3</ele>
        <time>2013-09-05T09:12:29Z</time>
      </trkpt>
      <trkpt lat="52.48771" lon="13.37939">
        <ele>58.1</ele>
        <time>2013-09-05T09:12:33Z</time>
      </trkpt>
      <trkpt lat="52.4877" lon="13.37954">
        <ele>58.9</ele>
        <time>2013-09-05T09:12:38Z</time>
      </trkpt>
      <trkpt lat="52.48766" lon="13.37971">
        <ele>59.7</ele>
        <time>2013-09-05T09:12:42Z</time>
      </trkpt>
      <trkpt lat="52.48766" lon="13.37988">
        <ele>60.2</ele>
        <time>2013-09-05T09:12:47Z</time>
      </trkpt>
      <trkpt lat="52.48765" lon="13.38006">
        <ele>60.6</ele>
        <time>2013-09-05T09:12:52Z</time>
      </trkpt>
      <trkpt lat="52.48767" lon="13.38024">
        <ele>61.1</ele>
        <time>2013-09-05T09:12:56Z</time>
      </trkpt>
      <trkpt lat="52.48764" lon="13.38043">
        <ele>61.5</ele>
        <time>2013-09-05T09:13:01Z</time>
      </trkpt>
      <trkpt lat="52.48762" lon="13.3806">
        <ele>62</ele>
        <time>2013-09-05T09:13:07Z</time>
      </trkpt>
      <trkpt lat="52.48766" lon="13.38078">
        <ele>62</ele>
        <time>2013-09-05T09:13:12Z</time>
      </trkpt>
      <trkpt lat="52.48766" lon="13.38096">
        <ele>62</ele>
        <time>2013-09-05T09:13:17Z</time>
      </trkpt>
      <trkpt lat="52.48758" lon="13.38102">
        <ele>62</ele>
        <time>2013-09-05T09:13:22Z</time>
      </trkpt>
      <trkpt lat="52.4875" lon="13.38117">
        <ele>62</ele>
        <time>2013-09-05T09:13:26Z</time>
      </trkpt>
      <trkpt lat="52.48744" lon="13.3813">
        <ele>62</ele>
        <time>2013-09-05T09:13:30Z</time>
      </trkpt>
      <trkpt lat="52.48739" lon="13.38144">
        <ele>61.8</ele>
        <time>2013-09-05T09:13:34Z</time>
      </trkpt>
      <trkpt lat="52.4874" lon="13.38161">
        <ele>61.6</ele>
        <time>2013-09-05T09:13:38Z</time>
      </trkpt>
      <trkpt lat="52.48745" lon="13.38174">
        <ele>61.5</ele>
        <time>2013-09-05T09:13:42Z</time>
      </trkpt>
      <trkpt lat="52.48752" lon="13.38187">
        <ele>61.3</ele>
        <time>2013-09-05T09:13:47Z</time>
      </trkpt>
      <trkpt lat="52.48746" lon="13.38202">
        <ele>61.1</ele>
        <time>2013-09-05T09:13:54Z</time>
      </trkpt>
      <trkpt lat="52.48741" lon="13.38216">
        <ele>60.7</ele>
        <time>2013-09-05T09:13:56Z</time>
      </trkpt>
      <trkpt lat="52.48738" lon="13.3823">
        <ele>60.4</ele>
        <time>2013-09-05T09:14:00Z</time>
      </trkpt>
      <trkpt lat="52.48735" lon="13.38244">
        <ele>60</ele>
        <time>2013-09-05T09:14:03Z</time>
      </trkpt>
      <trkpt lat="52.48733" lon="13.3826">
        <ele>59.6</ele>
        <time>2013-09-05T09:14:07Z</time>
      </trkpt>
      <trkpt lat="52.48734" lon="13.38278">
        <ele>59.3</ele>
        <time>2013-09-05T09:14:12Z</time>
      </trkpt>
      <trkpt lat="52.48737" lon="13.38295">
        <ele>58.9</ele>
        <time>2013-09-05T09:14:16Z</time>
      </trkpt>
      <trkpt lat="52.48739" lon="13.38314">
        <ele>58.7</ele>
        <time>2013-09-05T09:14:19Z</time>
      </trkpt>
      <trkpt lat="52.48742" lon="13.38331">
        <ele>58.5</ele>
        <time>2013-09-05T09:14:24Z</time>
      </trkpt>
      <trkpt lat="52.48748" lon="13.38347">
        <ele>58</ele>
        <time>2013-09-05T09:14:28Z</time>
      </trkpt>
      <trkpt lat="52.48754" lon="13.3836">
        <ele>57.5</ele>
        <time>2013-09-05T09:14:31Z</time>
      </trkpt>
      <trkpt lat="52.48763" lon="13.38365">
        <ele>56.9</ele>
        <time>2013-09-05T09:14:35Z</time>
      </trkpt>
      <trkpt lat="52.48773" lon="13.38367">
        <ele>56.3</ele>
        <time>2013-09-05T09:14:39Z</time>
      </trkpt>
      <trkpt lat="52.48775" lon="13.38384">
        <ele>55.6</ele>
        <time>2013-09-05T09:14:43Z</time>
      </trkpt>
      <trkpt lat="52.48775" lon="13.384">
        <ele>55</ele>
        <time>2013-09-05T09:14:47Z</time>
      </trkpt>
      <trkpt lat="52.4878" lon="13.38415">
        <ele>54.4</ele>
        <time>2013-09-05T09:14:51Z</time>
      </trkpt>
      <trkpt lat="52.48789" lon="13.38425">
        <ele>53.7</ele>
        <time>2013-09-05T09:14:55Z</time>
      </trkpt>
      <trkpt lat="52.48797" lon="13.38437">
        <ele>53.1</ele>
        <time>2013-09-05T09:15:00Z</time>
      </trkpt>
      <trkpt lat="52.48807" lon="13.38435">
        <ele>52.5</ele>
        <time>2013-09-05T09:15:05Z</time>
      </trkpt>
      <trkpt lat="52.48814" lon="13.38448">
        <ele>51.8</ele>
        <time>2013-09-05T09:15:12Z</time>
      </trkpt>
      <trkpt lat="52.48823" lon="13.38458">
        <ele>51.7</ele>
        <time>2013-09-05T09:15:16Z</time>
      </trkpt>
      <trkpt lat="52.4883" lon="13.38444">
        <ele>51.6</ele>
        <time>2013-09-05T09:15:20Z</time>
      </trkpt>
      <trkpt lat="52.48833" lon="13.38426">
        <ele>51.5</ele>
        <time>2013-09-05T09:15:25Z</time>
      </trkpt>
      <trkpt lat="52.48835" lon="13.38407">
        <ele>51.7</ele>
        <time>2013-09-05T09:15:29Z</time>
      </trkpt>
      <trkpt lat="52.48836" lon="13.38392">
        <ele>51.9</ele>
        <time>2013-09-05T09:15:32Z</time>
      </trkpt>
      <trkpt lat="52.48834" lon="13.38376">
        <ele>52.1</ele>
        <time>2013-09-05T09:15:34Z</time>
      </trkpt>
      <trkpt lat="52.48829" lon="13.38361">
        <ele>52.6</ele>
        <time>2013-09-05T09:15:39Z</time>
      </trkpt>
      <trkpt lat="52.48826" lon="13.38346">
        <ele>53.2</ele>
        <time>2013-09-05T09:15:43Z</time>
      </trkpt>
      <trkpt lat="52.48823" lon="13.38331">
        <ele>53.7</ele>
        <time>2013-09-05T09:15:46Z</time>
      </trkpt>
      <trkpt lat="52.48825" lon="13.38315">
        <ele>54.3</ele>
        <time>2013-09-05T09:15:50Z</time>
      </trkpt>
      <trkpt lat="52.48827" lon="13.383">
        <ele>54.8</ele>
        <time>2013-09-05T09:15:54Z</time>
      </trkpt>
      <trkpt lat="52.4883" lon="13.38284">
        <ele>55.2</ele>
        <time>2013-09-05T09:15:59Z</time>
      </trkpt>
      <trkpt lat="52.48833" lon="13.38269">
        <ele>55.5</ele>
        <time>2013-09-05T09:16:02Z</time>
      </trkpt>
      <trkpt lat="52.48838" lon="13.38256">
        <ele>54.8</ele>
        <time>2013-09-05T09:16:06Z</time>
      </trkpt>
      <trkpt lat="52.48845" lon="13.38244">
        <ele>54.1</ele>
        <time>2013-09-05T09:16:11Z</time>
      </trkpt>
      <trkpt lat="52.48857" lon="13.38241">
        <ele>53.4</ele>
        <time>2013-09-05T09:16:15Z</time>
      </trkpt>
      <trkpt lat="52.48866" lon="13.38243">
        <ele>52.6</ele>
        <time>2013-09-05T09:16:19Z</time>
      </trkpt>
      <trkpt lat="52.48875" lon="13.38251">
        <ele>51.5</ele>
        <time>2013-09-05T09:16:22Z</time>
      </trkpt>
      <trkpt lat="52.48884" lon="13.38259">
        <ele>50.5</ele>
        <time>2013-09-05T09:16:27Z</time>
      </trkpt>
      <trkpt lat="52.48894" lon="13.38267">
        <ele>49.4</ele>
        <time>2013-09-05T09:16:31Z</time>
      </trkpt>
      <trkpt lat="52.48906" lon="13.38267">
        <ele>48.3</ele>
        <time>2013-09-05T09:16:34Z</time>
      </trkpt>
      <trkpt lat="52.48913" lon="13.38254">
        <ele>47.2</ele>
        <time>2013-09-05T09:16:38Z</time>
      </trkpt>
      <trkpt lat="52.48922" lon="13.38248">
        <ele>46.1</ele>
        <time>2013-09-05T09:16:42Z</time>
      </trkpt>
      <trkpt lat="52.4893" lon="13.38253">
        <ele>45</ele>
        <time>2013-09-05T09:16:45Z</time>
      </trkpt>
      <trkpt lat="52.48924" lon="13.38242">
        <ele>45</ele>
        <time>2013-09-05T09:16:56Z</time>
      </trkpt>
      <trkpt lat="52.48919" lon="13.38228">
        <ele>45.1</ele>
        <time>2013-09-05T09:16:59Z</time>
      </trkpt>
      <trkpt lat="52.48913" lon="13.38217">
        <ele>45.2</ele>
        <time>2013-09-05T09:17:02Z</time>
      </trkpt>
      <trkpt lat="52.48904" lon="13.38216">
        <ele>45.3</ele>
        <time>2013-09-05T09:17:06Z</time>
      </trkpt>
      <trkpt lat="52.48894" lon="13.3822">
        <ele>45.4</ele>
        <time>2013-09-05T09:17:13Z</time>
      </trkpt>
      <trkpt lat="52.48885" lon="13.38212">
        <ele>45.5</ele>
        <time>2013-09-05T09:17:19Z</time>
      </trkpt>
      <trkpt lat="52.48881" lon="13.38196">
        <ele>45.5</ele>
        <time>2013-09-05T09:17:24Z</time>
      </trkpt>
      <trkpt lat="52.48883" lon="13.38181">
        <ele>45.5</ele>
        <time>2013-09-05T09:17:29Z</time>
      </trkpt>
      <trkpt lat="52.48884" lon="13.38165">
        <ele>45.5</ele>
        <time>2013-09-05T09:17:34Z</time>
      </trkpt>
      <trkpt lat="52.48884" lon="13.3815">
        <ele>45.5</ele>
        <time>2013-09-05T09:17:40Z</time>
      </trkpt>
      <trkpt lat="52.48885" lon="13.38133">
        <ele>45.5</ele>
        <time>2013-09-05T09:17:44Z</time>
      </trkpt>
      <trkpt lat="52.48894" lon="13.38123">
        <ele>45.5</ele>
        <time>2013-09-05T09:17:51Z</time>
      </trkpt>
      <trkpt lat="52.48896" lon="13.38105">
        <ele>45.3</ele>
        <time>2013-09-05T09:17:56Z</time>
      </trkpt>
      <trkpt lat="52.48899" lon="13.38089">
        <ele>45.1</ele>
        <time>2013-09-05T09:17:58Z</time>
      </trkpt>
      <trkpt lat="52.48903" lon="13.38076">
        <ele>44.9</ele>
        <time>2013-09-05T09:18:01Z</time>
      </trkpt>
      <trkpt lat="52.48909" lon="13.38062">
        <ele>44.7</ele>
        <time>2013-09-05T09:18:07Z</time>
      </trkpt>
      <trkpt lat="52.48907" lon="13.38047">
        <ele>44.5</ele>
        <time>2013-09-05T09:18:11Z</time>
      </trkpt>
      <trkpt lat="52.48904" lon="13.38031">
        <ele>44.5</ele>
        <time>2013-09-05T09:18:14Z</time>
      </trkpt>
      <trkpt lat="52.48899" lon="13.38018">
        <ele>44.5</ele>
        <time>2013-09-05T09:18:16Z</time>
      </trkpt>
      <trkpt lat="52.48893" lon="13.38002">
        <ele>44.5</ele>
        <time>2013-09-05T09:18:21Z</time>
      </trkpt>
      <trkpt lat="52.48894" lon="13.37985">
        <ele>44.5</ele>
        <time>2013-09-05T09:18:26Z</time>
      </trkpt>
      <trkpt lat="52.48892" lon="13.37967">
        <ele>44.5</ele>
        <time>2013-09-05T09:18:30Z</time>
      </trkpt>
      <trkpt lat="52.48893" lon="13.3795">
        <ele>44.5</ele>
        <time>2013-09-05T09:18:35Z</time>
      </trkpt>
      <trkpt lat="52.48895" lon="13.37934">
        <ele>44.6</ele>
        <time>2013-09-05T09:18:39Z</time>
      </trkpt>
      <trkpt lat="52.48897" lon="13.37917">
        <ele>44.7</ele>
        <time>2013-09-05T09:18:43Z</time>
      </trkpt>
      <trkpt lat="52.48896" lon="13.37899">
        <ele>45</ele>
        <time>2013-09-05T09:18:47Z</time>
      </trkpt>
      <trkpt lat="52.48895" lon="13.37881">
        <ele>45.3</ele>
        <time>2013-09-05T09:18:51Z</time>
      </trkpt>
      <trkpt lat="52.48892" lon="13.37863">
        <ele>45.6</ele>
        <time>2013-09-05T09:18:56Z</time>
      </trkpt>
      <trkpt lat="52.48886" lon="13.37849">
        <ele>45.9</ele>
        <time>2013-09-05T09:19:00Z</time>
      </trkpt>
      <trkpt lat="52.48881" lon="13.37837">
        <ele>46.2</ele>
        <time>2013-09-05T09:19:04Z</time>
      </trkpt>
      <trkpt lat="52.48874" lon="13.37823">
        <ele>46.5</ele>
        <time>2013-09-05T09:19:09Z</time>
      </trkpt>
      <trkpt lat="52.48868" lon="13.37808">
        <ele>46.7</ele>
        <time>2013-09-05T09:19:14Z</time>
      </trkpt>
      <trkpt lat="52.48859" lon="13.37798">
        <ele>47</ele>
        <time>2013-09-05T09:19:18Z</time>
      </trkpt>
      <trkpt lat="52.4885" lon="13.37793">
        <ele>47.3</ele>
        <time>2013-09-05T09:19:23Z</time>
      </trkpt>
      <trkpt lat="52.48841" lon="13.37788">
        <ele>47.9</ele>
        <time>2013-09-05T09:19:27Z</time>
      </trkpt>
      <trkpt lat="52.4883" lon="13.37787">
        <ele>48.5</ele>
        <time>2013-09-05T09:19:32Z</time>
      </trkpt>
      <trkpt lat="52.48821" lon="13.37788">
        <ele>49</ele>
        <time>2013-09-05T09:19:36Z</time>
      </trkpt>
      <trkpt lat="52.48812" lon="13.37788">
        <ele>49.5</ele>
        <time>2013-09-05T09:19:41Z</time>
      </trkpt>
      <trkpt lat="52.48803" lon="13.37787">
        <ele>49.8</ele>
        <time>2013-09-05T09:19:45Z</time>
      </trkpt>
      <trkpt lat="52.48793" lon="13.37787">
        <ele>50.3</ele>
        <time>2013-09-05T09:19:50Z</time>
      </trkpt>
      <trkpt lat="52.48782" lon="13.37789">
        <ele>50.7</ele>
        <time>2013-09-05T09:19:53Z</time>
      </trkpt>
      <trkpt lat="52.48771" lon="13.3779">
        <ele>51.2</ele>
        <time>2013-09-05T09:19:57Z</time>
      </trkpt>
      <trkpt lat="52.48761" lon="13.37787">
        <ele>51.6</ele>
        <time>2013-09-05T09:20:01Z</time>
      </trkpt>
      <trkpt lat="52.48771" lon="13.37793">
        <ele>52.1</ele>
        <time>2013-09-05T09:20:08Z</time>
      </trkpt>
      <trkpt lat="52.48773" lon="13.37808">
        <ele>52.9</ele>
        <time>2013-09-05T09:20:12Z</time>
      </trkpt>
      <trkpt lat="52.48769" lon="13.37825">
        <ele>53.4</ele>
        <time>2013-09-05T09:20:18Z</time>
      </trkpt>
      <trkpt lat="52.48769" lon="13.37843">
        <ele>53.8</ele>
        <time>2013-09-05T09:20:23Z</time>
      </trkpt>
      <trkpt lat="52.48768" lon="13.37857">
        <ele>54.3</ele>
        <time>2013-09-05T09:20:27Z</time>
      </trkpt>
      <trkpt lat="52.48768" lon="13.37872">
        <ele>54.7</ele>
        <time>2013-09-05T09:20:31Z</time>
      </trkpt>
      <trkpt lat="52.48769" lon="13.37888">
        <ele>55.6</ele>
        <time>2013-09-05T09:20:36Z</time>
      </trkpt>
      <trkpt lat="52.48769" lon="13.37903">
        <ele>56.5</ele>
        <time>2013-09-05T09:20:41Z</time>
      </trkpt>
      <trkpt lat="52.48767" lon="13.37918">
        <ele>57.3</ele>
        <time>2013-09-05T09:20:47Z</time>
      </trkpt>
      <trkpt lat="52.48767" lon="13.37935">
        <ele>58.1</ele>
        <time>2013-09-05T09:20:53Z</time>
      </trkpt>
      <trkpt lat="52.48764" lon="13.37951">
        <ele>58.9</ele>
        <time>2013-09-05T09:20:58Z</time>
      </trkpt>
      <trkpt lat="52.48761" lon="13.37966">
        <ele>59.7</ele>
        <time>2013-09-05T09:21:01Z</time>
      </trkpt>
      <trkpt lat="52.48763" lon="13.37984">
        <ele>60.2</ele>
        <time>2013-09-05T09:21:05Z</time>
      </trkpt>
      <trkpt lat="52.48767" lon="13.38">
        <ele>60.6</ele>
        <time>2013-09-05T09:21:07Z</time>
      </trkpt>
      <trkpt lat="52.48769" lon="13.38017">
        <ele>61.1</ele>
        <time>2013-09-05T09:21:10Z</time>
      </trkpt>
      <trkpt lat="52.48771" lon="13.38032">
        <ele>61.5</ele>
        <time>2013-09-05T09:21:13Z</time>
      </trkpt>
      <trkpt lat="52.48772" lon="13.38048">
        <ele>62</ele>
        <time>2013-09-05T09:21:17Z</time>
      </trkpt>
      <trkpt lat="52.48771" lon="13.38065">
        <ele>62</ele>
        <time>2013-09-05T09:21:23Z</time>
      </trkpt>
      <trkpt lat="52.4877" lon="13.38081">
        <ele>62</ele>
        <time>2013-09-05T09:21:28Z</time>
      </trkpt>
      <trkpt lat="52.48764" lon="13.38093">
        <ele>61.8</ele>
        <time>2013-09-05T09:21:32Z</time>
      </trkpt>
      <trkpt lat="52.48771" lon="13.38103">
        <ele>61.6</ele>
        <time>2013-09-05T09:21:37Z</time>
      </trkpt>
      <trkpt lat="52.4878" lon="13.38111">
        <ele>61.5</ele>
        <time>2013-09-05T09:21:41Z</time>
      </trkpt>
      <trkpt lat="52.48787" lon="13.38123">
        <ele>61.3</ele>
        <time>2013-09-05T09:21:45Z</time>
      </trkpt>
      <trkpt lat="52.48793" lon="13.38137">
        <ele>61.1</ele>
        <time>2013-09-05T09:21:49Z</time>
      </trkpt>
      <trkpt lat="52.48798" lon="13.38149">
        <ele>60.9</ele>
        <time>2013-09-05T09:21:54Z</time>
      </trkpt>
      <trkpt lat="52.488" lon="13.38167">
        <ele>60.5</ele>
        <time>2013-09-05T09:21:58Z</time>
      </trkpt>
      <trkpt lat="52.48807" lon="13.38179">
        <ele>60</ele>
        <time>2013-09-05T09:22:06Z</time>
      </trkpt>
      <trkpt lat="52.48816" lon="13.38186">
        <ele>59.5</ele>
        <time>2013-09-05T09:22:10Z</time>
      </trkpt>
      <trkpt lat="52.48814" lon="13.38201">
        <ele>59.1</ele>
        <time>2013-09-05T09:22:19Z</time>
      </trkpt>
      <trkpt lat="52.48823" lon="13.38201">
        <ele>58.9</ele>
        <time>2013-09-05T09:22:25Z</time>
      </trkpt>
      <trkpt lat="52.4882" lon="13.38217">
        <ele>58.9</ele>
        <time>2013-09-05T09:22:33Z</time>
      </trkpt>
      <trkpt lat="52.4881" lon="13.3822">
        <ele>58.6</ele>
        <time>2013-09-05T09:22:39Z</time>
      </trkpt>
      <trkpt lat="52.48801" lon="13.38229">
        <ele>58</ele>
        <time>2013-09-05T09:22:45Z</time>
      </trkpt>
      <trkpt lat="52.48796" lon="13.38243">
        <ele>57.4</ele>
        <time>2013-09-05T09:22:49Z</time>
      </trkpt>
      <trkpt lat="52.48794" lon="13.38258">
        <ele>56.7</ele>
        <time>2013-09-05T09:22:53Z</time>
      </trkpt>
      <trkpt lat="52.48794" lon="13.38273">
        <ele>56.1</ele>
        <time>2013-09-05T09:22:58Z</time>
      </trkpt>
      <trkpt lat="52.48797" lon="13.38288">
        <ele>55.7</ele>
        <time>2013-09-05T09:23:02Z</time>
      </trkpt>
      <trkpt lat="52.48802" lon="13.383">
        <ele>55.4</ele>
        <time>2013-09-05T09:23:05Z</time>
      </trkpt>
      <trkpt lat="52.48806" lon="13.38315">
        <ele>55</ele>
        <time>2013-09-05T09:23:12Z</time>
      </trkpt>
      <trkpt lat="52.48802" lon="13.38329">
        <ele>54.6</ele>
        <time>2013-09-05T09:23:16Z</time>
      </trkpt>
      <trkpt lat="52.48809" lon="13.38344">
        <ele>54</ele>
        <time>2013-09-05T09:23:21Z</time>
      </trkpt>
      <trkpt lat="52.48815" lon="13.38355">
        <ele>53.4</ele>
        <time>2013-09-05T09:23:25Z</time>
      </trkpt>
      <trkpt lat="52.48822" lon="13.38369">
        <ele>53</ele>
        <time>2013-09-05T09:23:28Z</time>
      </trkpt>
      <trkpt lat="52.4883" lon="13.38377">
        <ele>53</ele>
        <time>2013-09-05T09:23:32Z</time>
      </trkpt>
      <trkpt lat="52.4884" lon="13.38372">
        <ele>53.4</ele>
        <time>2013-09-05T09:23:39Z</time>
      </trkpt>
      <trkpt lat="52.48835" lon="13.38356">
        <ele>53.7</ele>
        <time>2013-09-05T09:23:43Z</time>
      </trkpt>
      <trkpt lat="52.48831" lon="13.3834">
        <ele>54.1</ele>
        <time>2013-09-05T09:23:48Z</time>
      </trkpt>
      <trkpt lat="52.48829" lon="13.38323">
        <ele>54.5</ele>
        <time>2013-09-05T09:23:53Z</time>
      </trkpt>
      <trkpt lat="52.4883" lon="13.38307">
        <ele>54.8</ele>
        <time>2013-09-05T09:24:00Z</time>
      </trkpt>
      <trkpt lat="52.48832" lon="13.38292">
        <ele>55.2</ele>
        <time>2013-09-05T09:24:06Z</time>
      </trkpt>
      <trkpt lat="52.48841" lon="13.38288">
        <ele>54.5</ele>
        <time>2013-09-05T09:24:11Z</time>
      </trkpt>
      <trkpt lat="52.4885" lon="13.38283">
        <ele>53.7</ele>
        <time>2013-09-05T09:24:17Z</time>
      </trkpt>
      <trkpt lat="52.48853" lon="13.38268">
        <ele>52.9</ele>
        <time>2013-09-05T09:24:22Z</time>
      </trkpt>
      <trkpt lat="52.48863" lon="13.38268">
        <ele>52.2</ele>
        <time>2013-09-05T09:24:27Z</time>
      </trkpt>
      <trkpt lat="52.48873" lon="13.38275">
        <ele>51.5</ele>
        <time>2013-09-05T09:24:31Z</time>
      </trkpt>
      <trkpt lat="52.48881" lon="13.38281">
        <ele>50.4</ele>
        <time>2013-09-05T09:24:34Z</time>
      </trkpt>
      <trkpt lat="52.4889" lon="13.38288">
        <ele>49.3</ele>
        <time>2013-09-05T09:24:38Z</time>
      </trkpt>
      <trkpt lat="52.48901" lon="13.38293">
        <ele>48.2</ele>
        <time>2013-09-05T09:24:43Z</time>
      </trkpt>
      <trkpt lat="52.4891" lon="13.3829">
        <ele>47.1</ele>
        <time>2013-09-05T09:24:47Z</time>
      </trkpt>
      <trkpt lat="52.48918" lon="13.38279">
        <ele>46</ele>
        <time>2013-09-05T09:24:52Z</time>
      </trkpt>
      <trkpt lat="52.48927" lon="13.38283">
        <ele>44.9</ele>
        <time>2013-09-05T09:24:59Z</time>
      </trkpt>
      <trkpt lat="52.48929" lon="13.38267">
        <ele>44.9</ele>
        <time>2013-09-05T09:25:07Z</time>
      </trkpt>
      <trkpt lat="52.48931" lon="13.38248">
        <ele>44.9</ele>
        <time>2013-09-05T09:25:10Z</time>
      </trkpt>
      <trkpt lat="52.48926" lon="13.38234">
        <ele>45.1</ele>
        <time>2013-09-05T09:25:13Z</time>
      </trkpt>
      <trkpt lat="52.48916" lon="13.38228">
        <ele>45.2</ele>
        <time>2013-09-05T09:25:17Z</time>
      </trkpt>
      <trkpt lat="52.48906" lon="13.38228">
        <ele>45.3</ele>
        <time>2013-09-05T09:25:22Z</time>
      </trkpt>
      <trkpt lat="52.48897" lon="13.38231">
        <ele>46.6</ele>
        <time>2013-09-05T09:25:26Z</time>
      </trkpt>
      <trkpt lat="52.48887" lon="13.38223">
        <ele>48</ele>
        <time>2013-09-05T09:25:31Z</time>
      </trkpt>
      <trkpt lat="52.48883" lon="13.38209">
        <ele>49.2</ele>
        <time>2013-09-05T09:25:35Z</time>
      </trkpt>
      <trkpt lat="52.48883" lon="13.38191">
        <ele>49.2</ele>
        <time>2013-09-05T09:25:40Z</time>
      </trkpt>
      <trkpt lat="52.4888" lon="13.38174">
        <ele>50.4</ele>
        <time>2013-09-05T09:25:43Z</time>
      </trkpt>
      <trkpt lat="52.48874" lon="13.3816">
        <ele>51.5</ele>
        <time>2013-09-05T09:25:46Z</time>
      </trkpt>
      <trkpt lat="52.48873" lon="13.38142">
        <ele>52.7</ele>
        <time>2013-09-05T09:25:51Z</time>
      </trkpt>
      <trkpt lat="52.48872" lon="13.38126">
        <ele>53.9</ele>
        <time>2013-09-05T09:25:54Z</time>
      </trkpt>
      <trkpt lat="52.48877" lon="13.38112">
        <ele>54.9</ele>
        <time>2013-09-05T09:25:58Z</time>
      </trkpt>
      <trkpt lat="52.48875" lon="13.38097">
        <ele>56</ele>
        <time>2013-09-05T09:26:03Z</time>
      </trkpt>
      <trkpt lat="52.48867" lon="13.38085">
        <ele>57.1</ele>
        <time>2013-09-05T09:26:08Z</time>
      </trkpt>
      <trkpt lat="52.48861" lon="13.38073">
        <ele>56.9</ele>
        <time>2013-09-05T09:26:13Z</time>
      </trkpt>
      <trkpt lat="52.48858" lon="13.38057">
        <ele>56.7</ele>
        <time>2013-09-05T09:26:18Z</time>
      </trkpt>
      <trkpt lat="52.48851" lon="13.38044">
        <ele>56.7</ele>
        <time>2013-09-05T09:26:25Z</time>
      </trkpt>
      <trkpt lat="52.48854" lon="13.38058">
        <ele>57.9</ele>
        <time>2013-09-05T09:26:45Z</time>
      </trkpt>
      <trkpt lat="52.48852" lon="13.38072">
        <ele>58.1</ele>
        <time>2013-09-05T09:26:51Z</time>
      </trkpt>
      <trkpt lat="52.48846" lon="13.38087">
        <ele>58.3</ele>
        <time>2013-09-05T09:26:55Z</time>
      </trkpt>
      <trkpt lat="52.48838" lon="13.38099">
        <ele>58.5</ele>
        <time>2013-09-05T09:27:00Z</time>
      </trkpt>
      <trkpt lat="52.48833" lon="13.38112">
        <ele>58.6</ele>
        <time>2013-09-05T09:27:06Z</time>
      </trkpt>
      <trkpt lat="52.48828" lon="13.38127">
        <ele>59.1</ele>
        <time>2013-09-05T09:27:11Z</time>
      </trkpt>
      <trkpt lat="52.48823" lon="13.3814">
        <ele>59.5</ele>
        <time>2013-09-05T09:27:16Z</time>
      </trkpt>
      <trkpt lat="52.48814" lon="13.38149">
        <ele>59.8</ele>
        <time>2013-09-05T09:27:21Z</time>
      </trkpt>
      <trkpt lat="52.48804" lon="13.38149">
        <ele>60.2</ele>
        <time>2013-09-05T09:27:27Z</time>
      </trkpt>
      <trkpt lat="52.48798" lon="13.38134">
        <ele>60.5</ele>
        <time>2013-09-05T09:27:32Z</time>
      </trkpt>
      <trkpt lat="52.48791" lon="13.38122">
        <ele>60.9</ele>
        <time>2013-09-05T09:27:37Z</time>
      </trkpt>
      <trkpt lat="52.48785" lon="13.38107">
        <ele>61.3</ele>
        <time>2013-09-05T09:27:42Z</time>
      </trkpt>
      <trkpt lat="52.48777" lon="13.38099">
        <ele>61.5</ele>
        <time>2013-09-05T09:27:47Z</time>
      </trkpt>
      <trkpt lat="52.48767" lon="13.38095">
        <ele>61.6</ele>
        <time>2013-09-05T09:27:50Z</time>
      </trkpt>
      <trkpt lat="52.48758" lon="13.38105">
        <ele>61.8</ele>
        <time>2013-09-05T09:27:55Z</time>
      </trkpt>
      <trkpt lat="52.4875" lon="13.38117">
        <ele>62</ele>
        <time>2013-09-05T09:28:01Z</time>
      </trkpt>
      <trkpt lat="52.48747" lon="13.38134">
        <ele>62</ele>
        <time>2013-09-05T09:28:04Z</time>
      </trkpt>
      <trkpt lat="52.48747" lon="13.38149">
        <ele>61.8</ele>
        <time>2013-09-05T09:28:08Z</time>
      </trkpt>
      <trkpt lat="52.48749" lon="13.38164">
        <ele>61.6</ele>
        <time>2013-09-05T09:28:11Z</time>
      </trkpt>
      <trkpt lat="52.48755" lon="13.3818">
        <ele>61.5</ele>
        <time>2013-09-05T09:28:15Z</time>
      </trkpt>
      <trkpt lat="52.48762" lon="13.38194">
        <ele>61.3</ele>
        <time>2013-09-05T09:28:18Z</time>
      </trkpt>
      <trkpt lat="52.48757" lon="13.38208">
        <ele>61.1</ele>
        <time>2013-09-05T09:28:23Z</time>
      </trkpt>
      <trkpt lat="52.48749" lon="13.38221">
        <ele>60.7</ele>
        <time>2013-09-05T09:28:26Z</time>
      </trkpt>
      <trkpt lat="52.48743" lon="13.38236">
        <ele>60.4</ele>
        <time>2013-09-05T09:28:31Z</time>
      </trkpt>
      <trkpt lat="52.48738" lon="13.38253">
        <ele>60</ele>
        <time>2013-09-05T09:28:34Z</time>
      </trkpt>
      <trkpt lat="52.48735" lon="13.38269">
        <ele>59.6</ele>
        <time>2013-09-05T09:28:38Z</time>
      </trkpt>
      <trkpt lat="52.48733" lon="13.38285">
        <ele>59.3</ele>
        <time>2013-09-05T09:28:41Z</time>
      </trkpt>
      <trkpt lat="52.48734" lon="13.383">
        <ele>58.9</ele>
        <time>2013-09-05T09:28:43Z</time>
      </trkpt>
      <trkpt lat="52.48736" lon="13.38315">
        <ele>58.7</ele>
        <time>2013-09-05T09:28:46Z</time>
      </trkpt>
      <trkpt lat="52.48738" lon="13.38331">
        <ele>58.5</ele>
        <time>2013-09-05T09:28:50Z</time>
      </trkpt>
      <trkpt lat="52.48747" lon="13.38324">
        <ele>57.9</ele>
        <time>2013-09-05T09:28:57Z</time>
      </trkpt>
      <trkpt lat="52.48756" lon="13.38331">
        <ele>57.3</ele>
        <time>2013-09-05T09:29:02Z</time>
      </trkpt>
      <trkpt lat="52.48767" lon="13.38335">
        <ele>56.6</ele>
        <time>2013-09-05T09:29:05Z</time>
      </trkpt>
      <trkpt lat="52.48776" lon="13.38335">
        <ele>56.2</ele>
        <time>2013-09-05T09:29:10Z</time>
      </trkpt>
      <trkpt lat="52.48787" lon="13.38339">
        <ele>55.7</ele>
        <time>2013-09-05T09:29:15Z</time>
      </trkpt>
      <trkpt lat="52.48796" lon="13.38348">
        <ele>55.3</ele>
        <time>2013-09-05T09:29:20Z</time>
      </trkpt>
      <trkpt lat="52.48803" lon="13.3836">
        <ele>54.8</ele>
        <time>2013-09-05T09:29:23Z</time>
      </trkpt>
      <trkpt lat="52.48811" lon="13.38369">
        <ele>54.4</ele>
        <time>2013-09-05T09:29:28Z</time>
      </trkpt>
      <trkpt lat="52.48821" lon="13.38376">
        <ele>53.9</ele>
        <time>2013-09-05T09:29:33Z</time>
      </trkpt>
      <trkpt lat="52.4883" lon="13.38378">
        <ele>53.5</ele>
        <time>2013-09-05T09:29:38Z</time>
      </trkpt>
      <trkpt lat="52.48838" lon="13.38369">
        <ele>53</ele>
        <time>2013-09-05T09:29:42Z</time>
      </trkpt>
      <trkpt lat="52.48844" lon="13.38355">
        <ele>53.4</ele>
        <time>2013-09-05T09:29:49Z</time>
      </trkpt>
      <trkpt lat="52.48849" lon="13.38341">
        <ele>52.5</ele>
        <time>2013-09-05T09:29:53Z</time>
      </trkpt>
      <trkpt lat="52.48854" lon="13.38328">
        <ele>51.7</ele>
        <time>2013-09-05T09:29:58Z</time>
      </trkpt>
      <trkpt lat="52.48861" lon="13.38316">
        <ele>50.9</ele>
        <time>2013-09-05T09:30:01Z</time>
      </trkpt>
      <trkpt lat="52.48867" lon="13.38301">
        <ele>50.2</ele>
        <time>2013-09-05T09:30:06Z</time>
      </trkpt>
      <trkpt lat="52.48873" lon="13.38288">
        <ele>49.5</ele>
        <time>2013-09-05T09:30:12Z</time>
      </trkpt>
      <trkpt lat="52.48883" lon="13.38294">
        <ele>48.7</ele>
        <time>2013-09-05T09:30:19Z</time>
      </trkpt>
      <trkpt lat="52.48892" lon="13.38298">
        <ele>48</ele>
        <time>2013-09-05T09:30:23Z</time>
      </trkpt>
      <trkpt lat="52.48903" lon="13.38295">
        <ele>47.3</ele>
        <time>2013-09-05T09:30:28Z</time>
      </trkpt>
      <trkpt lat="52.48907" lon="13.38279">
        <ele>46.5</ele>
        <time>2013-09-05T09:30:33Z</time>
      </trkpt>
      <trkpt lat="52.48915" lon="13.38265">
        <ele>45.8</ele>
        <time>2013-09-05T09:30:36Z</time>
      </trkpt>
      <trkpt lat="52.4892" lon="13.38251">
        <ele>44.7</ele>
        <time>2013-09-05T09:30:39Z</time>
      </trkpt>
      <trkpt lat="52.48923" lon="13.38234">
        <ele>44.9</ele>
        <time>2013-09-05T09:30:43Z</time>
      </trkpt>
      <trkpt lat="52.48918" lon="13.38221">
        <ele>45.1</ele>
        <time>2013-09-05T09:30:47Z</time>
      </trkpt>
      <trkpt lat="52.48909" lon="13.38219">
        <ele>45.3</ele>
        <time>2013-09-05T09:30:51Z</time>
      </trkpt>
      <trkpt lat="52.48899" lon="13.38223">
        <ele>45.4</ele>
        <time>2013-09-05T09:30:55Z</time>
      </trkpt>
      <trkpt lat="52.4889" lon="13.38218">
        <ele>45.5</ele>
        <time>2013-09-05T09:31:00Z</time>
      </trkpt>
      <trkpt lat="52.48884" lon="13.38205">
        <ele>45.5</ele>
        <time>2013-09-05T09:31:05Z</time>
      </trkpt>
      <trkpt lat="52.48883" lon="13.38188">
        <ele>45.6</ele>
        <time>2013-09-05T09:31:12Z</time>
      </trkpt>
      <trkpt lat="52.48883" lon="13.38172">
        <ele>45.7</ele>
        <time>2013-09-05T09:31:17Z</time>
      </trkpt>
      <trkpt lat="52.48886" lon="13.38157">
        <ele>45.8</ele>
        <time>2013-09-05T09:31:21Z</time>
      </trkpt>
      <trkpt lat="52.4889" lon="13.38141">
        <ele>45.9</ele>
        <time>2013-09-05T09:31:26Z</time>
      </trkpt>
      <trkpt lat="52.48897" lon="13.38153">
        <ele>46</ele>
        <time>2013-09-05T09:31:35Z</time>
      </trkpt>
      <trkpt lat="52.48903" lon="13.38169">
        <ele>46</ele>
        <time>2013-09-05T09:31:40Z</time>
      </trkpt>
      <trkpt lat="52.48912" lon="13.38177">
        <ele>45.9</ele>
        <time>2013-09-05T09:31:44Z</time>
      </trkpt>
      <trkpt lat="52.48923" lon="13.38175">
        <ele>45.8</ele>
        <time>2013-09-05T09:31:48Z</time>
      </trkpt>
      <trkpt lat="52.48933" lon="13.38166">
        <ele>45.7</ele>
        <time>2013-09-05T09:31:52Z</time>
      </trkpt>
      <trkpt lat="52.4894" lon="13.38151">
        <ele>45.6</ele>
        <time>2013-09-05T09:31:57Z</time>
      </trkpt>
      <trkpt lat="52.48941" lon="13.38132">
        <ele>45.5</ele>
        <time>2013-09-05T09:32:01Z</time>
      </trkpt>
      <trkpt lat="52.48936" lon="13.38118">
        <ele>45.4</ele>
        <time>2013-09-05T09:32:04Z</time>
      </trkpt>
      <trkpt lat="52.48929" lon="13.38103">
        <ele>45.2</ele>
        <time>2013-09-05T09:32:08Z</time>
      </trkpt>
      <trkpt lat="52.48922" lon="13.38091">
        <ele>45</ele>
        <time>2013-09-05T09:32:13Z</time>
      </trkpt>
      <trkpt lat="52.48917" lon="13.38075">
        <ele>44.8</ele>
        <time>2013-09-05T09:32:17Z</time>
      </trkpt>
      <trkpt lat="52.48917" lon="13.3806">
        <ele>44.6</ele>
        <time>2013-09-05T09:32:20Z</time>
      </trkpt>
      <trkpt lat="52.48915" lon="13.38042">
        <ele>44.5</ele>
        <time>2013-09-05T09:32:25Z</time>
      </trkpt>
      <trkpt lat="52.48912" lon="13.38027">
        <ele>44.5</ele>
        <time>2013-09-05T09:32:31Z</time>
      </trkpt>
      <trkpt lat="52.48906" lon="13.38015">
        <ele>44.5</ele>
        <time>2013-09-05T09:32:34Z</time>
      </trkpt>
      <trkpt lat="52.48905" lon="13.37999">
        <ele>44.5</ele>
        <time>2013-09-05T09:32:38Z</time>
      </trkpt>
      <trkpt lat="52.48907" lon="13.37982">
        <ele>44.5</ele>
        <time>2013-09-05T09:32:41Z</time>
      </trkpt>
      <trkpt lat="52.48908" lon="13.37964">
        <ele>44.5</ele>
        <time>2013-09-05T09:32:45Z</time>
      </trkpt>
      <trkpt lat="52.48908" lon="13.37946">
        <ele>44.5</ele>
        <time>2013-09-05T09:32:50Z</time>
      </trkpt>
      <trkpt lat="52.48911" lon="13.37932">
        <ele>44.6</ele>
        <time>2013-09-05T09:32:54Z</time>
      </trkpt>
      <trkpt lat="52.48916" lon="13.37917">
        <ele>44.7</ele>
        <time>2013-09-05T09:32:59Z</time>
      </trkpt>
      <trkpt lat="52.48922" lon="13.37903">
        <ele>44.8</ele>
        <time>2013-09-05T09:33:03Z</time>
      </trkpt>
      <trkpt lat="52.48925" lon="13.37888">
        <ele>44.9</ele>
        <time>2013-09-05T09:33:07Z</time>
      </trkpt>
      <trkpt lat="52.48927" lon="13.3787">
        <ele>45.1</ele>
        <time>2013-09-05T09:33:12Z</time>
      </trkpt>
      <trkpt lat="52.48925" lon="13.37855">
        <ele>45.2</ele>
        <time>2013-09-05T09:33:15Z</time>
      </trkpt>
      <trkpt lat="52.48925" lon="13.37838">
        <ele>45.3</ele>
        <time>2013-09-05T09:33:19Z</time>
      </trkpt>
      <trkpt lat="52.48924" lon="13.37823">
        <ele>45.4</ele>
        <time>2013-09-05T09:33:23Z</time>
      </trkpt>
      <trkpt lat="52.48923" lon="13.37805">
        <ele>45.5</ele>
        <time>2013-09-05T09:33:26Z</time>
      </trkpt>
      <trkpt lat="52.4892" lon="13.37786">
        <ele>45.5</ele>
        <time>2013-09-05T09:33:31Z</time>
      </trkpt>
      <trkpt lat="52.48918" lon="13.37767">
        <ele>45.6</ele>
        <time>2013-09-05T09:33:35Z</time>
      </trkpt>
      <trkpt lat="52.48914" lon="13.37748">
        <ele>45.9</ele>
        <time>2013-09-05T09:33:39Z</time>
      </trkpt>
      <trkpt lat="52.48908" lon="13.37737">
        <ele>46.2</ele>
        <time>2013-09-05T09:33:41Z</time>
      </trkpt>
      <trkpt lat="52.48901" lon="13.37727">
        <ele>46.5</ele>
        <time>2013-09-05T09:33:44Z</time>
      </trkpt>
      <trkpt lat="52.48893" lon="13.37724">
        <ele>46.7</ele>
        <time>2013-09-05T09:33:48Z</time>
      </trkpt>
      <trkpt lat="52.48883" lon="13.37722">
        <ele>46.9</ele>
        <time>2013-09-05T09:33:52Z</time>
      </trkpt>
      <trkpt lat="52.48872" lon="13.3772">
        <ele>47.2</ele>
        <time>2013-09-05T09:33:56Z</time>
      </trkpt>
      <trkpt lat="52.48862" lon="13.37717">
        <ele>47.5</ele>
        <time>2013-09-05T09:34:01Z</time>
      </trkpt>
      <trkpt lat="52.48852" lon="13.37717">
        <ele>47.7</ele>
        <time>2013-09-05T09:34:05Z</time>
      </trkpt>
      <trkpt lat="52.48842" lon="13.37719">
        <ele>48.3</ele>
        <time>2013-09-05T09:34:10Z</time>
      </trkpt>
      <trkpt lat="52.48831" lon="13.37719">
        <ele>48.8</ele>
        <time>2013-09-05T09:34:14Z</time>
      </trkpt>
      <trkpt lat="52.48821" lon="13.37715">
        <ele>49.4</ele>
        <time>2013-09-05T09:34:19Z</time>
      </trkpt>
      <trkpt lat="52.48811" lon="13.37714">
        <ele>49.7</ele>
        <time>2013-09-05T09:34:22Z</time>
      </trkpt>
      <trkpt lat="52.488" lon="13.37709">
        <ele>50.1</ele>
        <time>2013-09-05T09:34:26Z</time>
      </trkpt>
      <trkpt lat="52.48792" lon="13.37717">
        <ele>50.5</ele>
        <time>2013-09-05T09:34:30Z</time>
      </trkpt>
      <trkpt lat="52.48784" lon="13.37729">
        <ele>50.9</ele>
        <time>2013-09-05T09:34:35Z</time>
      </trkpt>
      <trkpt lat="52.4878" lon="13.37746">
        <ele>51.4</ele>
        <time>2013-09-05T09:34:40Z</time>
      </trkpt>
      <trkpt lat="52.48779" lon="13.37762">
        <ele>51.7</ele>
        <time>2013-09-05T09:34:45Z</time>
      </trkpt>
      <trkpt lat="52.48779" lon="13.37779">
        <ele>52.1</ele>
        <time>2013-09-05T09:34:51Z</time>
      </trkpt>
      <trkpt lat="52.4878" lon="13.37794">
        <ele>52.5</ele>
        <time>2013-09-05T09:34:55Z</time>
      </trkpt>
      <trkpt lat="52.48779" lon="13.37811">
        <ele>52.9</ele>
        <time>2013-09-05T09:35:00Z</time>
      </trkpt>
      <trkpt lat="52.48777" lon="13.37826">
        <ele>53.4</ele>
        <time>2013-09-05T09:35:05Z</time>
      </trkpt>
      <trkpt lat="52.48773" lon="13.3784">
        <ele>53.8</ele>
        <time>2013-09-05T09:35:09Z</time>
      </trkpt>
      <trkpt lat="52.48773" lon="13.37855">
        <ele>54.3</ele>
        <time>2013-09-05T09:35:14Z</time>
      </trkpt>
      <trkpt lat="52.48773" lon="13.3787">
        <ele>54.7</ele>
        <time>2013-09-05T09:35:16Z</time>
      </trkpt>
      <trkpt lat="52.48773" lon="13.37887">
        <ele>55.6</ele>
        <time>2013-09-05T09:35:21Z</time>
      </trkpt>
      <trkpt lat="52.48774" lon="13.37904">
        <ele>56.5</ele>
        <time>2013-09-05T09:35:25Z</time>
      </trkpt>
      <trkpt lat="52.48774" lon="13.37922">
        <ele>57.3</ele>
        <time>2013-09-05T09:35:30Z</time>
      </trkpt>
      <trkpt lat="52.48771" lon="13.37938">
        <ele>58.1</ele>
        <time>2013-09-05T09:35:34Z</time>
      </trkpt>
      <trkpt lat="52.4877" lon="13.37955">
        <ele>58.9</ele>
        <time>2013-09-05T09:35:39Z</time>
      </trkpt>
      <trkpt lat="52.4877" lon="13.37971">
        <ele>59.7</ele>
        <time>2013-09-05T09:35:44Z</time>
      </trkpt>
      <trkpt lat="52.48769" lon="13.37989">
        <ele>60.2</ele>
        <time>2013-09-05T09:35:48Z</time>
      </trkpt>
      <trkpt lat="52.48768" lon="13.38005">
        <ele>60.6</ele>
        <time>2013-09-05T09:35:51Z</time>
      </trkpt>
      <trkpt lat="52.48767" lon="13.38023">
        <ele>61.1</ele>
        <time>2013-09-05T09:35:56Z</time>
      </trkpt>
      <trkpt lat="52.48768" lon="13.3804">
        <ele>61.5</ele>
        <time>2013-09-05T09:35:59Z</time>
      </trkpt>
      <trkpt lat="52.48771" lon="13.38054">
        <ele>62</ele>
        <time>2013-09-05T09:36:05Z</time>
      </trkpt>
      <trkpt lat="52.48776" lon="13.3807">
        <ele>61.8</ele>
        <time>2013-09-05T09:36:10Z</time>
      </trkpt>
      <trkpt lat="52.48778" lon="13.38086">
        <ele>61.6</ele>
        <time>2013-09-05T09:36:15Z</time>
      </trkpt>
      <trkpt lat="52.48782" lon="13.38103">
        <ele>61.6</ele>
        <time>2013-09-05T09:36:21Z</time>
      </trkpt>
      <trkpt lat="52.48787" lon="13.3812">
        <ele>61.6</ele>
        <time>2013-09-05T09:36:24Z</time>
      </trkpt>
      <trkpt lat="52.48793" lon="13.38136">
        <ele>61.6</ele>
        <time>2013-09-05T09:36:28Z</time>
      </trkpt>
      <trkpt lat="52.48799" lon="13.38149">
        <ele>61.6</ele>
        <time>2013-09-05T09:36:32Z</time>
      </trkpt>
      <trkpt lat="52.488" lon="13.38167">
        <ele>61.6</ele>
        <time>2013-09-05T09:36:36Z</time>
      </trkpt>
      <trkpt lat="52.48793" lon="13.38179">
        <ele>61.5</ele>
        <time>2013-09-05T09:36:39Z</time>
      </trkpt>
      <trkpt lat="52.48784" lon="13.38186">
        <ele>61.3</ele>
        <time>2013-09-05T09:36:42Z</time>
      </trkpt>
      <trkpt lat="52.48774" lon="13.3819">
        <ele>61.1</ele>
        <time>2013-09-05T09:36:46Z</time>
      </trkpt>
      <trkpt lat="52.48766" lon="13.38196">
        <ele>60.9</ele>
        <time>2013-09-05T09:36:51Z</time>
      </trkpt>
      <trkpt lat="52.48758" lon="13.38206">
        <ele>60.9</ele>
        <time>2013-09-05T09:36:57Z</time>
      </trkpt>
      <trkpt lat="52.48755" lon="13.38221">
        <ele>60.7</ele>
        <time>2013-09-05T09:37:01Z</time>
      </trkpt>
      <trkpt lat="52.4875" lon="13.38235">
        <ele>60.4</ele>
        <time>2013-09-05T09:37:04Z</time>
      </trkpt>
      <trkpt lat="52.48743" lon="13.38249">
        <ele>60</ele>
        <time>2013-09-05T09:37:08Z</time>
      </trkpt>
      <trkpt lat="52.48738" lon="13.38261">
        <ele>59.6</ele>
        <time>2013-09-05T09:37:12Z</time>
      </trkpt>
      <trkpt lat="52.48735" lon="13.38277">
        <ele>59.3</ele>
        <time>2013-09-05T09:37:15Z</time>
      </trkpt>
      <trkpt lat="52.48733" lon="13.38295">
        <ele>58.9</ele>
        <time>2013-09-05T09:37:17Z</time>
      </trkpt>
      <trkpt lat="52.48731" lon="13.38314">
        <ele>58.7</ele>
        <time>2013-09-05T09:37:21Z</time>
      </trkpt>
      <trkpt lat="52.4873" lon="13.38331">
        <ele>58.5</ele>
        <time>2013-09-05T09:37:24Z</time>
      </trkpt>
      <trkpt lat="52.48731" lon="13.38347">
        <ele>58.4</ele>
        <time>2013-09-05T09:37:27Z</time>
      </trkpt>
      <trkpt lat="52.48735" lon="13.38363">
        <ele>57.8</ele>
        <time>2013-09-05T09:37:31Z</time>
      </trkpt>
      <trkpt lat="52.48744" lon="13.38372">
        <ele>57.3</ele>
        <time>2013-09-05T09:37:34Z</time>
      </trkpt>
      <trkpt lat="52.48755" lon="13.38372">
        <ele>56.9</ele>
        <time>2013-09-05T09:37:37Z</time>
      </trkpt>
      <trkpt lat="52.48766" lon="13.38368">
        <ele>56.3</ele>
        <time>2013-09-05T09:37:41Z</time>
      </trkpt>
      <trkpt lat="52.48774" lon="13.3838">
        <ele>55.6</ele>
        <time>2013-09-05T09:37:45Z</time>
      </trkpt>
      <trkpt lat="52.48777" lon="13.38397">
        <ele>55</ele>
        <time>2013-09-05T09:37:50Z</time>
      </trkpt>
      <trkpt lat="52.48779" lon="13.38412">
        <ele>54.4</ele>
        <time>2013-09-05T09:37:54Z</time>
      </trkpt>
      <trkpt lat="52.48788" lon="13.38422">
        <ele>53.7</ele>
        <time>2013-09-05T09:38:00Z</time>
      </trkpt>
      <trkpt lat="52.48798" lon="13.3843">
        <ele>53.1</ele>
        <time>2013-09-05T09:38:03Z</time>
      </trkpt>
      <trkpt lat="52.48808" lon="13.38428">
        <ele>52.5</ele>
        <time>2013-09-05T09:38:08Z</time>
      </trkpt>
      <trkpt lat="52.48818" lon="13.38433">
        <ele>52</ele>
        <time>2013-09-05T09:38:14Z</time>
      </trkpt>
      <trkpt lat="52.48825" lon="13.38445">
        <ele>51.9</ele>
        <time>2013-09-05T09:38:17Z</time>
      </trkpt>
      <trkpt lat="52.48833" lon="13.38431">
        <ele>51.8</ele>
        <time>2013-09-05T09:38:24Z</time>
      </trkpt>
      <trkpt lat="52.48834" lon="13.38415">
        <ele>51.7</ele>
        <time>2013-09-05T09:38:26Z</time>
      </trkpt>
      <trkpt lat="52.48835" lon="13.38399">
        <ele>51.9</ele>
        <time>2013-09-05T09:38:30Z</time>
      </trkpt>
      <trkpt lat="52.48835" lon="13.38381">
        <ele>52.1</ele>
        <time>2013-09-05T09:38:34Z</time>
      </trkpt>
      <trkpt lat="52.48831" lon="13.38364">
        <ele>52.6</ele>
        <time>2013-09-05T09:38:37Z</time>
      </trkpt>
      <trkpt lat="52.48826" lon="13.38349">
        <ele>53.2</ele>
        <time>2013-09-05T09:38:41Z</time>
      </trkpt>
      <trkpt lat="52.48822" lon="13.38331">
        <ele>53.7</ele>
        <time>2013-09-05T09:38:45Z</time>
      </trkpt>
      <trkpt lat="52.48822" lon="13.38316">
        <ele>54.3</ele>
        <time>2013-09-05T09:38:49Z</time>
      </trkpt>
      <trkpt lat="52.48824" lon="13.383">
        <ele>54.8</ele>
        <time>2013-09-05T09:38:51Z</time>
      </trkpt>
      <trkpt lat="52.48827" lon="13.38284">
        <ele>55.2</ele>
        <time>2013-09-05T09:38:55Z</time>
      </trkpt>
      <trkpt lat="52.48828" lon="13.38268">
        <ele>55.5</ele>
        <time>2013-09-05T09:38:58Z</time>
      </trkpt>
      <trkpt lat="52.48835" lon="13.38255">
        <ele>54.8</ele>
        <time>2013-09-05T09:39:03Z</time>
      </trkpt>
      <trkpt lat="52.48843" lon="13.38248">
        <ele>54.1</ele>
        <time>2013-09-05T09:39:05Z</time>
      </trkpt>
      <trkpt lat="52.48854" lon="13.3824">
        <ele>53.4</ele>
        <time>2013-09-05T09:39:09Z</time>
      </trkpt>
      <trkpt lat="52.48865" lon="13.3824">
        <ele>52.6</ele>
        <time>2013-09-05T09:39:14Z</time>
      </trkpt>
      <trkpt lat="52.48875" lon="13.38238">
        <ele>51.5</ele>
        <time>2013-09-05T09:39:20Z</time>
      </trkpt>
      <trkpt lat="52.48884" lon="13.38228">
        <ele>50.5</ele>
        <time>2013-09-05T09:39:25Z</time>
      </trkpt>
      <trkpt lat="52.48894" lon="13.38225">
        <ele>49.4</ele>
        <time>2013-09-05T09:39:27Z</time>
      </trkpt>
      <trkpt lat="52.48903" lon="13.38221">
        <ele>48.3</ele>
        <time>2013-09-05T09:39:30Z</time>
      </trkpt>
      <trkpt lat="52.48912" lon="13.38221">
        <ele>47.2</ele>
        <time>2013-09-05T09:39:36Z</time>
      </trkpt>
      <trkpt lat="52.48917" lon="13.38233">
        <ele>46.1</ele>
        <time>2013-09-05T09:39:41Z</time>
      </trkpt>
      <trkpt lat="52.48924" lon="13.38243">
        <ele>45</ele>
        <time>2013-09-05T09:39:45Z</time>
      </trkpt>
      <trkpt lat="52.48918" lon="13.38229">
        <ele>45.1</ele>
        <time>2013-09-05T09:39:59Z</time>
      </trkpt>
      <trkpt lat="52.48911" lon="13.38216">
        <ele>45.2</ele>
        <time>2013-09-05T09:40:04Z</time>
      </trkpt>
      <trkpt lat="52.48902" lon="13.38219">
        <ele>45.3</ele>
        <time>2013-09-05T09:40:10Z</time>
      </trkpt>
      <trkpt lat="52.48892" lon="13.38224">
        <ele>45.4</ele>
        <time>2013-09-05T09:40:14Z</time>
      </trkpt>
      <trkpt lat="52.48884" lon="13.38217">
        <ele>45.5</ele>
        <time>2013-09-05T09:40:22Z</time>
      </trkpt>
      <trkpt lat="52.48881" lon="13.38203">
        <ele>45.5</ele>
        <time>2013-09-05T09:40:27Z</time>
      </trkpt>
      <trkpt lat="52.48882" lon="13.38187">
        <ele>45.5</ele>
        <time>2013-09-05T09:40:33Z</time>
      </trkpt>
      <trkpt lat="52.48883" lon="13.3817">
        <ele>45.5</ele>
        <time>2013-09-05T09:40:38Z</time>
      </trkpt>
      <trkpt lat="52.48882" lon="13.38154">
        <ele>45.5</ele>
        <time>2013-09-05T09:40:41Z</time>
      </trkpt>
      <trkpt lat="52.48882" lon="13.38137">
        <ele>45.5</ele>
        <time>2013-09-05T09:40:46Z</time>
      </trkpt>
      <trkpt lat="52.4889" lon="13.38128">
        <ele>45.5</ele>
        <time>2013-09-05T09:40:54Z</time>
      </trkpt>
      <trkpt lat="52.48892" lon="13.38113">
        <ele>45.3</ele>
        <time>2013-09-05T09:40:59Z</time>
      </trkpt>
      <trkpt lat="52.48893" lon="13.38096">
        <ele>45.1</ele>
        <time>2013-09-05T09:41:03Z</time>
      </trkpt>
      <trkpt lat="52.48898" lon="13.38085">
        <ele>44.9</ele>
        <time>2013-09-05T09:41:06Z</time>
      </trkpt>
      <trkpt lat="52.48907" lon="13.38076">
        <ele>44.7</ele>
        <time>2013-09-05T09:41:08Z</time>
      </trkpt>
      <trkpt lat="52.48911" lon="13.3806">
        <ele>44.5</ele>
        <time>2013-09-05T09:41:13Z</time>
      </trkpt>
      <trkpt lat="52.48909" lon="13.38041">
        <ele>44.5</ele>
        <time>2013-09-05T09:41:17Z</time>
      </trkpt>
      <trkpt lat="52.48907" lon="13.38026">
        <ele>44.5</ele>
        <time>2013-09-05T09:41:21Z</time>
      </trkpt>
      <trkpt lat="52.48904" lon="13.38011">
        <ele>44.5</ele>
        <time>2013-09-05T09:41:24Z</time>
      </trkpt>
      <trkpt lat="52.48901" lon="13.37997">
        <ele>44.5</ele>
        <time>2013-09-05T09:41:29Z</time>
      </trkpt>
      <trkpt lat="52.48899" lon="13.37979">
        <ele>44.5</ele>
        <time>2013-09-05T09:41:33Z</time>
      </trkpt>
      <trkpt lat="52.48897" lon="13.37961">
        <ele>44.5</ele>
        <time>2013-09-05T09:41:37Z</time>
      </trkpt>
      <trkpt lat="52.48896" lon="13.37944">
        <ele>44.6</ele>
        <time>2013-09-05T09:41:40Z</time>
      </trkpt>
      <trkpt lat="52.48897" lon="13.37927">
        <ele>44.7</ele>
        <time>2013-09-05T09:41:43Z</time>
      </trkpt>
      <trkpt lat="52.48895" lon="13.37905">
        <ele>44.8</ele>
        <time>2013-09-05T09:41:46Z</time>
      </trkpt>
      <trkpt lat="52.48895" lon="13.37888">
        <ele>44.9</ele>
        <time>2013-09-05T09:41:49Z</time>
      </trkpt>
      <trkpt lat="52.48894" lon="13.37873">
        <ele>45</ele>
        <time>2013-09-05T09:41:53Z</time>
      </trkpt>
      <trkpt lat="52.48892" lon="13.37858">
        <ele>45</ele>
        <time>2013-09-05T09:41:56Z</time>
      </trkpt>
      <trkpt lat="52.48889" lon="13.37849">
        <ele>45</ele>
        <time>2013-09-05T09:42:00Z</time>
      </trkpt>
    </trkseg>
  </trk>
</gpx>